createdAt,value
2018-08-04T00:00:31.143Z,27.30
2018-08-04T00:01:02.865Z,27.20
2018-08-04T00:01:34.602Z,27.30
2018-08-04T00:02:06.352Z,27.30
2018-08-04T00:02:38.248Z,27.30
2018-08-04T00:03:09.988Z,27.30
2018-08-04T00:03:41.749Z,27.30
2018-08-04T00:04:13.483Z,27.30
2018-08-04T00:04:45.216Z,27.30
2018-08-04T00:05:16.949Z,27.40
2018-08-04T00:05:48.660Z,27.30
2018-08-04T00:06:52.396Z,27.30
2018-08-04T00:07:24.122Z,27.40
2018-08-04T00:07:55.862Z,27.40
2018-08-04T00:08:27.569Z,27.40
2018-08-04T00:08:59.304Z,27.40
2018-08-04T00:09:31.037Z,27.40
2018-08-04T00:10:02.766Z,27.30
2018-08-04T00:10:34.517Z,27.40
2018-08-04T00:11:06.206Z,27.40
2018-08-04T00:11:37.947Z,27.30
2018-08-04T00:12:09.861Z,27.30
2018-08-04T00:12:41.598Z,27.30
2018-08-04T00:13:13.523Z,27.30
2018-08-04T00:13:45.245Z,27.30
2018-08-04T00:14:16.962Z,27.30
2018-08-04T00:14:48.701Z,27.30
2018-08-04T00:15:20.437Z,27.30
2018-08-04T00:15:52.160Z,27.30
2018-08-04T00:16:23.933Z,27.30
2018-08-04T00:16:55.671Z,27.30
2018-08-04T00:17:27.403Z,27.30
2018-08-04T00:17:59.132Z,27.30
2018-08-04T00:18:30.858Z,27.30
2018-08-04T00:19:02.654Z,27.30
2018-08-04T00:19:34.378Z,27.30
2018-08-04T00:20:06.108Z,27.30
2018-08-04T00:20:37.875Z,27.30
2018-08-04T00:21:09.606Z,27.30
2018-08-04T00:21:41.335Z,27.30
2018-08-04T00:22:13.068Z,27.30
2018-08-04T00:22:44.782Z,27.30
2018-08-04T00:23:16.510Z,27.30
2018-08-04T00:23:48.238Z,27.30
2018-08-04T00:24:19.962Z,27.30
2018-08-04T00:24:51.696Z,27.30
2018-08-04T00:25:23.425Z,27.30
2018-08-04T00:25:55.136Z,27.20
2018-08-04T00:26:26.861Z,27.30
2018-08-04T00:26:58.581Z,27.20
2018-08-04T00:27:30.314Z,27.20
2018-08-04T00:28:02.037Z,27.20
2018-08-04T00:28:33.754Z,27.20
2018-08-04T00:29:05.489Z,27.20
2018-08-04T00:29:37.210Z,27.20
2018-08-04T00:30:08.942Z,27.20
2018-08-04T00:30:40.679Z,27.20
2018-08-04T00:31:12.450Z,27.20
2018-08-04T00:31:44.164Z,27.30
2018-08-04T00:32:15.889Z,27.30
2018-08-04T00:32:47.618Z,27.20
2018-08-04T00:33:19.341Z,27.30
2018-08-04T00:33:51.080Z,27.20
2018-08-04T00:34:22.986Z,27.30
2018-08-04T00:34:54.737Z,27.20
2018-08-04T00:35:26.460Z,27.20
2018-08-04T00:35:58.181Z,27.20
2018-08-04T00:36:29.921Z,27.20
2018-08-04T00:37:01.923Z,27.20
2018-08-04T00:37:33.637Z,27.20
2018-08-04T00:38:05.368Z,27.20
2018-08-04T00:38:37.084Z,27.20
2018-08-04T00:39:08.819Z,27.20
2018-08-04T00:39:40.540Z,27.20
2018-08-04T00:40:12.445Z,27.20
2018-08-04T00:40:44.177Z,27.20
2018-08-04T00:41:15.914Z,27.20
2018-08-04T00:41:47.648Z,27.20
2018-08-04T00:42:19.395Z,27.20
2018-08-04T00:42:51.146Z,27.20
2018-08-04T00:43:22.883Z,27.20
2018-08-04T00:43:54.610Z,27.20
2018-08-04T00:44:26.348Z,27.20
2018-08-04T00:44:58.082Z,27.20
2018-08-04T00:45:29.806Z,27.20
2018-08-04T00:46:01.531Z,27.20
2018-08-04T00:46:33.246Z,27.20
2018-08-04T00:47:04.990Z,27.20
2018-08-04T00:47:36.783Z,27.20
2018-08-04T00:48:08.504Z,27.20
2018-08-04T00:48:40.233Z,27.20
2018-08-04T00:49:11.979Z,27.20
2018-08-04T00:49:43.698Z,27.20
2018-08-04T00:50:15.417Z,27.20
2018-08-04T00:50:47.143Z,27.20
2018-08-04T00:51:18.866Z,27.20
2018-08-04T00:51:50.590Z,27.20
2018-08-04T00:52:22.317Z,27.20
2018-08-04T00:52:54.039Z,27.20
2018-08-04T00:53:25.769Z,27.20
2018-08-04T00:53:57.510Z,27.20
2018-08-04T00:54:29.267Z,27.20
2018-08-04T00:55:00.991Z,27.20
2018-08-04T00:55:32.794Z,27.20
2018-08-04T00:56:04.533Z,27.20
2018-08-04T00:56:36.274Z,27.20
2018-08-04T00:57:08.002Z,27.20
2018-08-04T00:57:39.717Z,27.20
2018-08-04T00:58:11.442Z,27.20
2018-08-04T00:58:43.182Z,27.20
2018-08-04T00:59:14.890Z,27.20
2018-08-04T00:59:46.616Z,27.20
2018-08-04T01:00:18.342Z,27.20
2018-08-04T01:00:50.066Z,27.20
2018-08-04T01:01:21.781Z,27.20
2018-08-04T01:01:53.502Z,27.10
2018-08-04T01:02:25.223Z,27.10
2018-08-04T01:02:56.952Z,27.20
2018-08-04T01:03:28.678Z,27.20
2018-08-04T01:04:00.626Z,27.20
2018-08-04T01:04:32.343Z,27.10
2018-08-04T01:05:04.059Z,27.10
2018-08-04T01:05:35.781Z,27.10
2018-08-04T01:06:07.523Z,27.10
2018-08-04T01:06:39.278Z,27.20
2018-08-04T01:07:11.008Z,27.20
2018-08-04T01:07:42.735Z,27.20
2018-08-04T01:08:14.456Z,27.20
2018-08-04T01:08:46.177Z,27.20
2018-08-04T01:09:17.894Z,27.20
2018-08-04T01:09:49.636Z,27.10
2018-08-04T01:10:21.352Z,27.20
2018-08-04T01:10:53.078Z,27.20
2018-08-04T01:11:24.834Z,27.20
2018-08-04T01:11:56.555Z,27.20
2018-08-04T01:12:28.278Z,27.20
2018-08-04T01:12:59.996Z,27.20
2018-08-04T01:13:31.762Z,27.20
2018-08-04T01:14:03.490Z,27.20
2018-08-04T01:14:35.219Z,27.20
2018-08-04T01:15:07.126Z,27.20
2018-08-04T01:15:38.846Z,27.20
2018-08-04T01:16:10.557Z,27.10
2018-08-04T01:16:42.286Z,27.20
2018-08-04T01:17:14.029Z,27.20
2018-08-04T01:17:45.769Z,27.20
2018-08-04T01:18:17.484Z,27.10
2018-08-04T01:18:49.231Z,27.10
2018-08-04T01:19:20.966Z,27.10
2018-08-04T01:19:52.704Z,27.10
2018-08-04T01:20:24.430Z,27.10
2018-08-04T01:20:56.154Z,27.10
2018-08-04T01:21:28.095Z,27.10
2018-08-04T01:21:59.827Z,27.10
2018-08-04T01:22:31.546Z,27.10
2018-08-04T01:23:03.276Z,27.10
2018-08-04T01:23:35.007Z,27.10
2018-08-04T01:24:06.741Z,27.10
2018-08-04T01:24:38.467Z,27.10
2018-08-04T01:25:10.183Z,27.10
2018-08-04T01:25:41.929Z,27.10
2018-08-04T01:26:13.653Z,27.10
2018-08-04T01:26:45.362Z,27.10
2018-08-04T01:27:17.091Z,27.10
2018-08-04T01:27:48.820Z,27.10
2018-08-04T01:28:20.557Z,27.10
2018-08-04T01:28:52.273Z,27.10
2018-08-04T01:29:23.992Z,27.10
2018-08-04T01:29:55.737Z,27.10
2018-08-04T01:30:27.457Z,27.10
2018-08-04T01:30:59.178Z,27.10
2018-08-04T01:31:30.905Z,27.10
2018-08-04T01:32:02.638Z,27.10
2018-08-04T01:32:34.354Z,27.10
2018-08-04T01:33:06.081Z,27.10
2018-08-04T01:33:37.802Z,27.10
2018-08-04T01:34:09.555Z,27.10
2018-08-04T01:34:41.446Z,27.10
2018-08-04T01:35:13.177Z,27.10
2018-08-04T01:35:44.889Z,27.10
2018-08-04T01:36:16.610Z,27.10
2018-08-04T01:36:48.333Z,27.10
2018-08-04T01:37:20.072Z,27.10
2018-08-04T01:37:51.789Z,27.10
2018-08-04T01:38:23.522Z,27.10
2018-08-04T01:38:55.253Z,27.10
2018-08-04T01:39:27.031Z,27.10
2018-08-04T01:39:58.745Z,27.10
2018-08-04T01:40:30.460Z,27.10
2018-08-04T01:41:02.189Z,27.10
2018-08-04T01:41:33.941Z,27.10
2018-08-04T01:42:05.651Z,27.00
2018-08-04T01:42:37.383Z,27.00
2018-08-04T01:43:09.112Z,27.10
2018-08-04T01:43:40.840Z,27.10
2018-08-04T01:44:12.549Z,27.00
2018-08-04T01:44:44.278Z,27.10
2018-08-04T01:45:16.018Z,27.00
2018-08-04T01:45:47.757Z,27.00
2018-08-04T01:46:19.472Z,27.00
2018-08-04T01:46:51.223Z,27.00
2018-08-04T01:47:22.957Z,27.00
2018-08-04T01:47:54.692Z,27.00
2018-08-04T01:48:26.412Z,27.00
2018-08-04T01:48:58.354Z,27.00
2018-08-04T01:49:30.087Z,27.00
2018-08-04T01:50:01.810Z,27.00
2018-08-04T01:50:33.538Z,27.00
2018-08-04T01:51:05.323Z,27.00
2018-08-04T01:51:37.045Z,27.00
2018-08-04T01:52:08.767Z,27.00
2018-08-04T01:52:40.489Z,27.00
2018-08-04T01:53:12.202Z,27.00
2018-08-04T01:53:44.054Z,27.00
2018-08-04T01:54:15.873Z,27.00
2018-08-04T01:54:47.587Z,27.00
2018-08-04T01:55:19.323Z,27.00
2018-08-04T01:55:51.078Z,27.00
2018-08-04T01:56:22.806Z,27.00
2018-08-04T01:56:54.540Z,27.10
2018-08-04T01:57:26.261Z,27.10
2018-08-04T01:58:30.010Z,27.00
2018-08-04T01:59:01.739Z,27.10
2018-08-04T01:59:33.657Z,27.10
2018-08-04T02:00:05.376Z,27.10
2018-08-04T02:00:37.099Z,27.00
2018-08-04T02:01:08.857Z,27.00
2018-08-04T02:01:40.578Z,27.00
2018-08-04T02:02:12.497Z,27.00
2018-08-04T02:02:44.221Z,27.00
2018-08-04T02:03:15.940Z,27.00
2018-08-04T02:03:47.657Z,27.00
2018-08-04T02:04:19.392Z,27.00
2018-08-04T02:04:51.122Z,27.00
2018-08-04T02:05:22.837Z,27.00
2018-08-04T02:05:54.582Z,27.00
2018-08-04T02:06:26.349Z,27.00
2018-08-04T02:06:58.155Z,27.00
2018-08-04T02:07:29.872Z,27.00
2018-08-04T02:08:01.637Z,27.00
2018-08-04T02:08:33.346Z,27.00
2018-08-04T02:09:05.078Z,27.00
2018-08-04T02:09:36.807Z,27.00
2018-08-04T02:10:40.552Z,27.00
2018-08-04T02:11:12.300Z,27.00
2018-08-04T02:11:44.032Z,27.00
2018-08-04T02:12:15.744Z,26.90
2018-08-04T02:12:47.473Z,26.90
2018-08-04T02:13:19.200Z,26.90
2018-08-04T02:14:22.957Z,26.90
2018-08-04T02:14:54.691Z,26.90
2018-08-04T02:15:26.405Z,26.90
2018-08-04T02:15:58.146Z,27.00
2018-08-04T02:16:29.889Z,26.90
2018-08-04T02:17:01.610Z,26.90
2018-08-04T02:17:33.342Z,26.90
2018-08-04T02:18:05.083Z,26.90
2018-08-04T02:18:36.822Z,26.90
2018-08-04T02:19:08.551Z,26.90
2018-08-04T02:19:40.272Z,26.90
2018-08-04T02:20:12.195Z,26.90
2018-08-04T02:20:43.933Z,26.90
2018-08-04T02:21:47.692Z,26.90
2018-08-04T02:22:19.421Z,26.90
2018-08-04T02:22:51.137Z,26.90
2018-08-04T02:23:22.879Z,26.90
2018-08-04T02:23:54.875Z,26.90
2018-08-04T02:24:26.598Z,26.90
2018-08-04T02:24:58.328Z,26.90
2018-08-04T02:25:30.042Z,26.90
2018-08-04T02:26:01.776Z,27.00
2018-08-04T02:26:33.491Z,27.00
2018-08-04T02:27:05.227Z,26.90
2018-08-04T02:27:36.947Z,26.90
2018-08-04T02:28:08.674Z,27.00
2018-08-04T02:28:40.428Z,26.90
2018-08-04T02:29:12.154Z,26.90
2018-08-04T02:29:43.879Z,26.90
2018-08-04T02:30:15.594Z,26.90
2018-08-04T02:30:47.337Z,26.90
2018-08-04T02:31:19.056Z,26.90
2018-08-04T02:31:50.802Z,26.90
2018-08-04T02:32:22.497Z,26.90
2018-08-04T02:32:54.214Z,26.90
2018-08-04T02:33:25.984Z,26.90
2018-08-04T02:33:57.723Z,26.90
2018-08-04T02:34:29.736Z,26.90
2018-08-04T02:35:01.461Z,26.90
2018-08-04T02:35:33.186Z,26.90
2018-08-04T02:36:04.908Z,26.90
2018-08-04T02:36:36.651Z,26.90
2018-08-04T02:37:08.370Z,26.90
2018-08-04T02:37:40.291Z,26.90
2018-08-04T02:38:12.013Z,26.90
2018-08-04T02:38:43.752Z,26.90
2018-08-04T02:39:15.474Z,26.80
2018-08-04T02:39:47.197Z,26.90
2018-08-04T02:40:18.922Z,26.90
2018-08-04T02:40:50.667Z,26.90
2018-08-04T02:41:22.387Z,26.90
2018-08-04T02:41:54.132Z,26.90
2018-08-04T02:42:25.857Z,26.90
2018-08-04T02:42:57.588Z,26.90
2018-08-04T02:43:29.339Z,26.90
2018-08-04T02:44:01.071Z,26.90
2018-08-04T02:44:32.801Z,26.90
2018-08-04T02:45:04.537Z,26.90
2018-08-04T02:45:36.270Z,26.90
2018-08-04T02:46:07.981Z,26.90
2018-08-04T02:46:39.709Z,26.90
2018-08-04T02:47:11.456Z,26.80
2018-08-04T02:47:43.189Z,26.80
2018-08-04T02:48:46.946Z,26.80
2018-08-04T02:49:18.697Z,26.80
2018-08-04T02:49:50.470Z,26.80
2018-08-04T02:50:22.197Z,26.80
2018-08-04T02:50:53.937Z,26.80
2018-08-04T02:51:25.712Z,26.80
2018-08-04T02:51:57.421Z,26.80
2018-08-04T02:52:29.154Z,26.80
2018-08-04T02:53:00.895Z,26.80
2018-08-04T02:53:32.657Z,26.80
2018-08-04T02:54:04.389Z,26.80
2018-08-04T02:54:36.125Z,26.80
2018-08-04T02:55:07.847Z,26.80
2018-08-04T02:55:39.567Z,26.80
2018-08-04T02:56:11.297Z,26.80
2018-08-04T02:56:43.021Z,26.80
2018-08-04T02:57:14.762Z,26.90
2018-08-04T02:57:46.493Z,26.90
2018-08-04T02:58:18.252Z,26.90
2018-08-04T02:58:49.971Z,26.80
2018-08-04T02:59:21.731Z,26.80
2018-08-04T02:59:53.506Z,26.90
2018-08-04T03:00:25.246Z,26.90
2018-08-04T03:00:56.957Z,26.90
2018-08-04T03:01:28.682Z,26.90
2018-08-04T03:02:00.463Z,26.90
2018-08-04T03:02:32.178Z,26.90
2018-08-04T03:03:03.919Z,26.90
2018-08-04T03:03:35.869Z,26.90
2018-08-04T03:04:07.590Z,26.90
2018-08-04T03:04:39.319Z,26.90
2018-08-04T03:05:11.038Z,26.90
2018-08-04T03:05:42.777Z,26.90
2018-08-04T03:06:14.500Z,26.90
2018-08-04T03:06:46.311Z,26.90
2018-08-04T03:07:18.178Z,26.90
2018-08-04T03:07:49.914Z,26.90
2018-08-04T03:08:21.640Z,26.90
2018-08-04T03:09:25.585Z,26.90
2018-08-04T03:09:57.321Z,26.90
2018-08-04T03:10:29.062Z,26.90
2018-08-04T03:11:00.969Z,26.90
2018-08-04T03:11:32.698Z,26.90
2018-08-04T03:12:04.613Z,26.90
2018-08-04T03:12:36.542Z,27.00
2018-08-04T03:13:08.312Z,26.90
2018-08-04T03:13:40.044Z,26.90
2018-08-04T03:14:11.822Z,26.90
2018-08-04T03:14:43.537Z,26.90
2018-08-04T03:15:15.269Z,26.90
2018-08-04T03:15:47.026Z,26.90
2018-08-04T03:16:18.741Z,26.90
2018-08-04T03:16:50.476Z,26.90
2018-08-04T03:17:22.197Z,26.90
2018-08-04T03:17:53.905Z,26.90
2018-08-04T03:18:25.628Z,26.90
2018-08-04T03:18:57.341Z,26.90
2018-08-04T03:19:29.066Z,26.90
2018-08-04T03:20:00.803Z,26.90
2018-08-04T03:20:32.752Z,26.90
2018-08-04T03:21:04.472Z,26.90
2018-08-04T03:21:36.187Z,26.90
2018-08-04T03:22:07.909Z,26.90
2018-08-04T03:22:39.638Z,26.90
2018-08-04T03:23:11.363Z,26.90
2018-08-04T03:23:43.090Z,26.90
2018-08-04T03:24:14.836Z,26.80
2018-08-04T03:24:46.570Z,26.80
2018-08-04T03:25:18.304Z,26.80
2018-08-04T03:25:50.233Z,26.80
2018-08-04T03:26:21.965Z,26.80
2018-08-04T03:26:53.730Z,26.80
2018-08-04T03:27:25.443Z,26.80
2018-08-04T03:27:57.171Z,26.80
2018-08-04T03:28:28.880Z,26.80
2018-08-04T03:29:00.621Z,26.80
2018-08-04T03:29:32.340Z,26.80
2018-08-04T03:30:04.063Z,26.80
2018-08-04T03:30:35.797Z,26.80
2018-08-04T03:31:07.519Z,26.80
2018-08-04T03:31:39.249Z,26.80
2018-08-04T03:32:10.975Z,26.80
2018-08-04T03:32:42.698Z,26.80
2018-08-04T03:33:46.444Z,26.80
2018-08-04T03:34:18.190Z,26.80
2018-08-04T03:34:49.913Z,26.80
2018-08-04T03:35:21.631Z,26.80
2018-08-04T03:35:53.377Z,26.80
2018-08-04T03:36:25.092Z,26.80
2018-08-04T03:36:56.821Z,26.80
2018-08-04T03:37:28.565Z,26.70
2018-08-04T03:38:00.294Z,26.80
2018-08-04T03:38:32.035Z,26.80
2018-08-04T03:39:03.821Z,26.80
2018-08-04T03:39:35.706Z,26.80
2018-08-04T03:40:07.437Z,26.80
2018-08-04T03:40:39.174Z,26.80
2018-08-04T03:41:10.888Z,26.80
2018-08-04T03:41:42.605Z,26.80
2018-08-04T03:42:14.338Z,26.80
2018-08-04T03:42:46.072Z,26.80
2018-08-04T03:43:17.795Z,26.80
2018-08-04T03:43:49.507Z,26.80
2018-08-04T03:44:21.231Z,26.80
2018-08-04T03:44:52.964Z,26.80
2018-08-04T03:45:24.687Z,26.80
2018-08-04T03:45:56.407Z,26.80
2018-08-04T03:46:28.175Z,26.80
2018-08-04T03:46:59.890Z,26.80
2018-08-04T03:47:31.609Z,26.80
2018-08-04T03:48:03.333Z,26.80
2018-08-04T03:48:35.073Z,26.80
2018-08-04T03:49:06.797Z,26.80
2018-08-04T03:49:38.514Z,26.80
2018-08-04T03:50:42.266Z,26.80
2018-08-04T03:51:13.989Z,26.80
2018-08-04T03:51:45.727Z,26.80
2018-08-04T03:52:17.458Z,26.80
2018-08-04T03:52:49.193Z,26.80
2018-08-04T03:53:20.915Z,26.80
2018-08-04T03:54:24.673Z,26.70
2018-08-04T03:54:56.418Z,26.70
2018-08-04T03:55:28.169Z,26.70
2018-08-04T03:56:00.027Z,26.70
2018-08-04T03:56:31.806Z,26.80
2018-08-04T03:57:03.545Z,26.70
2018-08-04T03:57:35.281Z,26.70
2018-08-04T03:58:07.075Z,26.70
2018-08-04T03:58:38.764Z,26.80
2018-08-04T03:59:10.485Z,26.80
2018-08-04T03:59:42.291Z,26.80
2018-08-04T04:00:14.149Z,26.80
2018-08-04T04:00:45.878Z,26.80
2018-08-04T04:01:17.615Z,26.80
2018-08-04T04:01:49.355Z,26.80
2018-08-04T04:02:21.096Z,26.80
2018-08-04T04:02:52.819Z,26.80
2018-08-04T04:03:24.567Z,26.80
2018-08-04T04:03:56.297Z,26.80
2018-08-04T04:04:28.017Z,26.80
2018-08-04T04:04:59.742Z,26.80
2018-08-04T04:05:31.471Z,26.80
2018-08-04T04:06:03.241Z,26.80
2018-08-04T04:06:35.054Z,26.80
2018-08-04T04:07:06.923Z,26.80
2018-08-04T04:07:38.654Z,26.80
2018-08-04T04:08:10.377Z,26.80
2018-08-04T04:08:42.106Z,26.80
2018-08-04T04:09:13.830Z,26.80
2018-08-04T04:09:45.560Z,26.80
2018-08-04T04:10:17.285Z,26.80
2018-08-04T04:10:49.030Z,26.80
2018-08-04T04:11:20.758Z,26.80
2018-08-04T04:11:52.517Z,26.70
2018-08-04T04:12:24.262Z,26.80
2018-08-04T04:12:55.985Z,26.80
2018-08-04T04:13:27.714Z,26.70
2018-08-04T04:13:59.436Z,26.80
2018-08-04T04:14:31.170Z,26.80
2018-08-04T04:15:02.894Z,26.80
2018-08-04T04:15:34.617Z,26.80
2018-08-04T04:16:06.370Z,26.80
2018-08-04T04:16:38.072Z,26.80
2018-08-04T04:17:09.817Z,26.80
2018-08-04T04:17:41.530Z,26.80
2018-08-04T04:18:13.251Z,26.80
2018-08-04T04:18:44.970Z,26.80
2018-08-04T04:19:16.690Z,26.80
2018-08-04T04:19:48.415Z,26.80
2018-08-04T04:20:20.130Z,26.80
2018-08-04T04:20:51.858Z,26.80
2018-08-04T04:21:23.581Z,26.80
2018-08-04T04:21:55.341Z,26.80
2018-08-04T04:22:27.063Z,26.80
2018-08-04T04:22:58.783Z,26.80
2018-08-04T04:23:30.508Z,26.80
2018-08-04T04:24:02.229Z,26.80
2018-08-04T04:24:33.972Z,26.80
2018-08-04T04:25:05.685Z,26.80
2018-08-04T04:25:37.406Z,26.80
2018-08-04T04:26:09.150Z,26.80
2018-08-04T04:26:40.871Z,26.70
2018-08-04T04:27:12.790Z,26.70
2018-08-04T04:27:44.638Z,26.80
2018-08-04T04:28:16.373Z,26.80
2018-08-04T04:28:48.112Z,26.70
2018-08-04T04:29:19.847Z,26.70
2018-08-04T04:29:51.573Z,26.70
2018-08-04T04:30:23.298Z,26.80
2018-08-04T04:30:55.013Z,26.70
2018-08-04T04:31:26.737Z,26.70
2018-08-04T04:31:58.474Z,26.70
2018-08-04T04:32:30.187Z,26.70
2018-08-04T04:33:01.914Z,26.80
2018-08-04T04:33:33.636Z,26.80
2018-08-04T04:34:05.361Z,26.80
2018-08-04T04:34:37.088Z,26.80
2018-08-04T04:35:08.808Z,26.80
2018-08-04T04:35:40.530Z,26.80
2018-08-04T04:36:12.253Z,26.80
2018-08-04T04:36:43.985Z,26.80
2018-08-04T04:37:15.710Z,26.80
2018-08-04T04:37:47.436Z,26.80
2018-08-04T04:38:19.153Z,26.80
2018-08-04T04:38:50.902Z,26.80
2018-08-04T04:39:22.633Z,26.80
2018-08-04T04:39:54.366Z,26.80
2018-08-04T04:40:26.092Z,26.80
2018-08-04T04:40:57.839Z,26.80
2018-08-04T04:41:29.566Z,26.80
2018-08-04T04:42:01.368Z,26.80
2018-08-04T04:42:33.099Z,26.80
2018-08-04T04:43:04.852Z,26.80
2018-08-04T04:43:36.593Z,26.80
2018-08-04T04:44:08.316Z,26.80
2018-08-04T04:44:40.031Z,26.90
2018-08-04T04:45:11.757Z,26.80
2018-08-04T04:45:43.486Z,26.90
2018-08-04T04:46:15.200Z,26.90
2018-08-04T04:46:46.917Z,26.90
2018-08-04T04:47:18.652Z,26.90
2018-08-04T04:47:50.373Z,26.90
2018-08-04T04:48:22.127Z,26.90
2018-08-04T04:48:54.035Z,26.90
2018-08-04T04:49:25.963Z,26.90
2018-08-04T04:49:57.678Z,26.90
2018-08-04T04:50:29.402Z,26.80
2018-08-04T04:51:01.121Z,26.80
2018-08-04T04:51:32.846Z,26.80
2018-08-04T04:52:04.583Z,26.80
2018-08-04T04:52:36.332Z,26.80
2018-08-04T04:53:08.059Z,26.90
2018-08-04T04:53:39.837Z,26.90
2018-08-04T04:54:11.567Z,26.80
2018-08-04T04:54:43.299Z,26.90
2018-08-04T04:55:15.040Z,26.90
2018-08-04T04:55:46.738Z,26.90
2018-08-04T04:56:18.460Z,26.90
2018-08-04T04:56:50.200Z,26.80
2018-08-04T04:57:21.947Z,26.80
2018-08-04T04:57:53.673Z,26.80
2018-08-04T04:58:25.414Z,26.80
2018-08-04T04:58:57.222Z,26.80
2018-08-04T04:59:28.978Z,26.80
2018-08-04T05:00:00.776Z,26.80
2018-08-04T05:00:32.501Z,26.80
2018-08-04T05:01:04.241Z,26.80
2018-08-04T05:01:35.964Z,26.80
2018-08-04T05:02:07.737Z,26.80
2018-08-04T05:02:39.628Z,26.90
2018-08-04T05:03:11.367Z,26.90
2018-08-04T05:03:43.126Z,26.90
2018-08-04T05:04:14.847Z,26.90
2018-08-04T05:04:46.591Z,26.90
2018-08-04T05:05:18.314Z,26.90
2018-08-04T05:05:50.040Z,26.90
2018-08-04T05:06:21.753Z,26.90
2018-08-04T05:06:53.486Z,26.90
2018-08-04T05:07:25.233Z,26.90
2018-08-04T05:07:56.974Z,26.90
2018-08-04T05:08:28.704Z,26.90
2018-08-04T05:09:00.418Z,26.90
2018-08-04T05:09:32.158Z,26.90
2018-08-04T05:10:03.889Z,26.90
2018-08-04T05:10:35.605Z,26.90
2018-08-04T05:11:07.342Z,26.90
2018-08-04T05:11:39.063Z,26.90
2018-08-04T05:12:10.784Z,26.90
2018-08-04T05:12:42.514Z,26.90
2018-08-04T05:13:14.307Z,26.90
2018-08-04T05:13:46.202Z,26.90
2018-08-04T05:14:17.943Z,26.90
2018-08-04T05:14:49.853Z,26.90
2018-08-04T05:15:21.574Z,26.80
2018-08-04T05:15:53.318Z,26.80
2018-08-04T05:16:25.042Z,26.80
2018-08-04T05:16:56.813Z,26.80
2018-08-04T05:17:28.581Z,26.80
2018-08-04T05:18:00.315Z,26.80
2018-08-04T05:18:32.032Z,26.90
2018-08-04T05:19:03.760Z,26.90
2018-08-04T05:19:35.476Z,26.90
2018-08-04T05:20:07.201Z,26.90
2018-08-04T05:20:38.944Z,26.80
2018-08-04T05:21:10.656Z,26.90
2018-08-04T05:21:42.393Z,26.90
2018-08-04T05:22:14.130Z,26.90
2018-08-04T05:22:45.856Z,26.90
2018-08-04T05:23:17.593Z,26.90
2018-08-04T05:23:49.354Z,26.90
2018-08-04T05:24:21.081Z,26.90
2018-08-04T05:24:52.802Z,26.90
2018-08-04T05:25:24.544Z,26.90
2018-08-04T05:25:56.269Z,26.90
2018-08-04T05:26:28.015Z,26.90
2018-08-04T05:26:59.759Z,26.90
2018-08-04T05:27:31.488Z,26.90
2018-08-04T05:28:03.228Z,26.90
2018-08-04T05:28:34.957Z,26.90
2018-08-04T05:29:06.679Z,26.90
2018-08-04T05:29:38.418Z,26.90
2018-08-04T05:30:10.158Z,26.90
2018-08-04T05:30:41.892Z,26.90
2018-08-04T05:31:13.608Z,26.90
2018-08-04T05:31:45.331Z,26.90
2018-08-04T05:32:17.066Z,26.90
2018-08-04T05:32:48.799Z,26.90
2018-08-04T05:33:20.521Z,26.90
2018-08-04T05:33:52.250Z,26.90
2018-08-04T05:34:23.985Z,26.90
2018-08-04T05:34:55.714Z,26.90
2018-08-04T05:35:27.444Z,27.00
2018-08-04T05:35:59.169Z,27.00
2018-08-04T05:36:30.885Z,27.00
2018-08-04T05:37:02.613Z,26.90
2018-08-04T05:37:34.358Z,27.00
2018-08-04T05:38:38.114Z,27.00
2018-08-04T05:39:09.857Z,26.90
2018-08-04T05:39:41.686Z,26.90
2018-08-04T05:40:13.385Z,26.90
2018-08-04T05:40:45.100Z,26.90
2018-08-04T05:41:16.823Z,26.90
2018-08-04T05:41:48.556Z,26.90
2018-08-04T05:42:20.287Z,26.90
2018-08-04T05:42:52.006Z,26.90
2018-08-04T05:43:23.762Z,26.90
2018-08-04T05:43:55.656Z,26.90
2018-08-04T05:44:27.384Z,26.90
2018-08-04T05:44:59.115Z,26.90
2018-08-04T05:45:30.832Z,26.90
2018-08-04T05:46:02.554Z,26.90
2018-08-04T05:46:34.282Z,27.00
2018-08-04T05:47:06.011Z,26.90
2018-08-04T05:47:37.734Z,27.00
2018-08-04T05:48:09.460Z,26.90
2018-08-04T05:48:41.177Z,26.90
2018-08-04T05:49:12.906Z,27.00
2018-08-04T05:49:44.629Z,27.00
2018-08-04T05:50:16.358Z,27.00
2018-08-04T05:50:48.084Z,26.90
2018-08-04T05:51:20.010Z,26.90
2018-08-04T05:51:51.782Z,26.90
2018-08-04T05:52:23.523Z,26.90
2018-08-04T05:52:55.257Z,26.90
2018-08-04T05:53:26.966Z,26.90
2018-08-04T05:53:58.707Z,26.90
2018-08-04T05:54:30.430Z,26.90
2018-08-04T05:55:02.162Z,26.90
2018-08-04T05:55:33.893Z,26.90
2018-08-04T05:56:05.620Z,26.90
2018-08-04T05:56:37.368Z,26.90
2018-08-04T05:57:09.329Z,26.90
2018-08-04T05:57:41.052Z,26.90
2018-08-04T05:58:12.790Z,26.90
2018-08-04T05:58:44.588Z,26.90
2018-08-04T05:59:16.314Z,26.90
2018-08-04T05:59:48.039Z,26.90
2018-08-04T06:00:19.769Z,26.90
2018-08-04T06:00:51.545Z,26.90
2018-08-04T06:01:23.411Z,26.90
2018-08-04T06:01:55.118Z,26.90
2018-08-04T06:02:26.859Z,26.90
2018-08-04T06:02:58.602Z,26.90
2018-08-04T06:03:30.331Z,26.90
2018-08-04T06:04:02.057Z,26.90
2018-08-04T06:04:33.802Z,26.90
2018-08-04T06:05:05.530Z,26.90
2018-08-04T06:05:37.257Z,26.90
2018-08-04T06:06:09.012Z,26.90
2018-08-04T06:06:40.741Z,27.00
2018-08-04T06:07:12.466Z,27.00
2018-08-04T06:07:44.193Z,27.00
2018-08-04T06:08:15.909Z,27.00
2018-08-04T06:08:47.643Z,27.00
2018-08-04T06:09:19.364Z,27.00
2018-08-04T06:09:51.089Z,27.00
2018-08-04T06:10:22.830Z,27.00
2018-08-04T06:10:54.571Z,27.00
2018-08-04T06:11:26.300Z,26.90
2018-08-04T06:11:58.025Z,27.00
2018-08-04T06:12:29.949Z,27.00
2018-08-04T06:13:01.676Z,27.00
2018-08-04T06:13:33.486Z,27.00
2018-08-04T06:14:05.223Z,27.00
2018-08-04T06:14:36.953Z,26.90
2018-08-04T06:15:08.865Z,26.90
2018-08-04T06:15:40.671Z,26.90
2018-08-04T06:16:12.594Z,26.90
2018-08-04T06:16:44.319Z,26.80
2018-08-04T06:17:16.038Z,26.80
2018-08-04T06:17:47.759Z,26.80
2018-08-04T06:18:19.485Z,26.80
2018-08-04T06:18:51.202Z,26.80
2018-08-04T06:19:22.919Z,26.80
2018-08-04T06:19:54.639Z,26.80
2018-08-04T06:20:26.370Z,26.80
2018-08-04T06:20:58.150Z,26.80
2018-08-04T06:21:30.026Z,26.80
2018-08-04T06:22:01.806Z,26.80
2018-08-04T06:22:33.701Z,26.80
2018-08-04T06:23:05.430Z,26.80
2018-08-04T06:23:37.159Z,26.90
2018-08-04T06:24:08.883Z,26.80
2018-08-04T06:24:40.592Z,26.90
2018-08-04T06:25:12.324Z,26.90
2018-08-04T06:25:44.084Z,26.90
2018-08-04T06:26:15.814Z,26.90
2018-08-04T06:26:47.536Z,26.90
2018-08-04T06:27:19.262Z,26.80
2018-08-04T06:27:50.992Z,26.80
2018-08-04T06:28:22.753Z,26.80
2018-08-04T06:28:54.630Z,26.80
2018-08-04T06:29:26.352Z,26.80
2018-08-04T06:29:58.070Z,26.80
2018-08-04T06:30:29.853Z,26.90
2018-08-04T06:31:01.736Z,26.80
2018-08-04T06:31:33.477Z,26.90
2018-08-04T06:32:05.409Z,26.90
2018-08-04T06:32:37.141Z,26.90
2018-08-04T06:33:08.895Z,26.90
2018-08-04T06:33:40.620Z,26.90
2018-08-04T06:34:12.394Z,26.90
2018-08-04T06:34:44.123Z,26.90
2018-08-04T06:35:15.845Z,26.90
2018-08-04T06:35:47.571Z,26.90
2018-08-04T06:36:19.284Z,26.90
2018-08-04T06:36:51.027Z,26.90
2018-08-04T06:37:22.764Z,26.90
2018-08-04T06:37:54.491Z,26.90
2018-08-04T06:38:26.210Z,26.90
2018-08-04T06:38:57.931Z,26.90
2018-08-04T06:39:29.660Z,26.90
2018-08-04T06:40:01.385Z,26.90
2018-08-04T06:40:33.325Z,26.90
2018-08-04T06:41:05.056Z,27.00
2018-08-04T06:41:36.845Z,27.00
2018-08-04T06:42:08.710Z,27.00
2018-08-04T06:42:40.426Z,27.00
2018-08-04T06:43:12.157Z,27.00
2018-08-04T06:43:43.910Z,27.00
2018-08-04T06:44:15.639Z,27.00
2018-08-04T06:44:47.361Z,27.00
2018-08-04T06:45:19.165Z,27.00
2018-08-04T06:45:51.029Z,27.00
2018-08-04T06:46:22.759Z,27.00
2018-08-04T06:46:54.488Z,27.00
2018-08-04T06:47:26.203Z,27.00
2018-08-04T06:47:57.945Z,27.00
2018-08-04T06:48:29.677Z,27.00
2018-08-04T06:49:01.399Z,27.00
2018-08-04T06:49:33.133Z,27.00
2018-08-04T06:50:04.842Z,27.00
2018-08-04T06:50:36.566Z,27.00
2018-08-04T06:51:08.289Z,27.00
2018-08-04T06:51:40.021Z,27.00
2018-08-04T06:52:11.948Z,27.00
2018-08-04T06:52:43.711Z,27.00
2018-08-04T06:53:15.604Z,27.00
2018-08-04T06:53:47.325Z,27.00
2018-08-04T06:54:19.046Z,27.00
2018-08-04T06:54:50.779Z,27.00